sensor_id;sensor_type;location;lat;lon;timestamp;P1;durP1;ratioP1;P2;durP2;ratioP2
28070;SDS011;15383;48.408;9.968;2023-12-04T00:02:10;35.63;;;15.20;;
28070;SDS011;15383;48.408;9.968;2023-12-04T00:04:35;37.28;;;16.27;;
28070;SDS011;15383;48.408;9.968;2023-12-04T00:07:01;39.65;;;15.93;;
28070;SDS011;15383;48.408;9.968;2023-12-04T00:09:26;39.05;;;16.63;;
28070;SDS011;15383;48.408;9.968;2023-12-04T00:11:52;38.80;;;15.52;;
28070;SDS011;15383;48.408;9.968;2023-12-04T00:14:17;38.65;;;15.95;;
28070;SDS011;15383;48.408;9.968;2023-12-04T00:16:43;40.95;;;16.35;;
28070;SDS011;15383;48.408;9.968;2023-12-04T00:19:09;36.90;;;15.52;;
28070;SDS011;15383;48.408;9.968;2023-12-04T00:21:34;42.65;;;14.90;;
28070;SDS011;15383;48.408;9.968;2023-12-04T00:24:00;43.53;;;15.25;;
28070;SDS011;15383;48.408;9.968;2023-12-04T00:26:25;39.03;;;16.52;;
28070;SDS011;15383;48.408;9.968;2023-12-04T00:28:51;37.92;;;15.63;;
28070;SDS011;15383;48.408;9.968;2023-12-04T00:31:16;42.47;;;16.85;;
28070;SDS011;15383;48.408;9.968;2023-12-04T00:33:42;51.25;;;17.52;;
28070;SDS011;15383;48.408;9.968;2023-12-04T00:36:08;44.75;;;16.40;;
28070;SDS011;15383;48.408;9.968;2023-12-04T00:38:34;42.65;;;17.45;;
28070;SDS011;15383;48.408;9.968;2023-12-04T00:40:59;45.90;;;17.02;;
28070;SDS011;15383;48.408;9.968;2023-12-04T00:43:25;37.78;;;16.83;;
28070;SDS011;15383;48.408;9.968;2023-12-04T00:45:51;46.35;;;16.98;;
28070;SDS011;15383;48.408;9.968;2023-12-04T00:48:16;44.67;;;17.38;;
28070;SDS011;15383;48.408;9.968;2023-12-04T00:50:42;40.83;;;17.13;;
28070;SDS011;15383;48.408;9.968;2023-12-04T00:53:07;47.92;;;16.88;;
28070;SDS011;15383;48.408;9.968;2023-12-04T00:55:33;44.60;;;17.38;;
28070;SDS011;15383;48.408;9.968;2023-12-04T00:57:58;49.00;;;18.20;;
28070;SDS011;15383;48.408;9.968;2023-12-04T01:00:24;46.10;;;18.60;;
28070;SDS011;15383;48.408;9.968;2023-12-04T01:02:49;49.85;;;19.35;;
28070;SDS011;15383;48.408;9.968;2023-12-04T01:05:16;54.92;;;18.83;;
28070;SDS011;15383;48.408;9.968;2023-12-04T01:07:41;60.58;;;19.45;;
28070;SDS011;15383;48.408;9.968;2023-12-04T01:10:07;49.00;;;18.48;;
28070;SDS011;15383;48.408;9.968;2023-12-04T01:12:33;44.78;;;18.27;;
28070;SDS011;15383;48.408;9.968;2023-12-04T01:14:58;55.33;;;20.23;;
28070;SDS011;15383;48.408;9.968;2023-12-04T01:17:24;55.10;;;17.83;;
28070;SDS011;15383;48.408;9.968;2023-12-04T01:19:49;46.13;;;18.15;;
28070;SDS011;15383;48.408;9.968;2023-12-04T01:22:15;48.13;;;18.83;;
28070;SDS011;15383;48.408;9.968;2023-12-04T01:24:41;46.05;;;19.40;;
28070;SDS011;15383;48.408;9.968;2023-12-04T01:27:06;51.78;;;18.77;;
28070;SDS011;15383;48.408;9.968;2023-12-04T01:29:32;50.17;;;18.35;;
28070;SDS011;15383;48.408;9.968;2023-12-04T01:31:57;45.58;;;17.13;;
28070;SDS011;15383;48.408;9.968;2023-12-04T01:34:23;47.28;;;17.88;;
28070;SDS011;15383;48.408;9.968;2023-12-04T01:36:48;41.40;;;17.98;;
28070;SDS011;15383;48.408;9.968;2023-12-04T01:39:14;41.95;;;16.95;;
28070;SDS011;15383;48.408;9.968;2023-12-04T01:41:39;42.90;;;17.00;;
28070;SDS011;15383;48.408;9.968;2023-12-04T01:44:05;38.75;;;17.17;;
28070;SDS011;15383;48.408;9.968;2023-12-04T01:46:31;46.00;;;16.00;;
28070;SDS011;15383;48.408;9.968;2023-12-04T01:48:56;39.42;;;16.27;;
28070;SDS011;15383;48.408;9.968;2023-12-04T01:51:23;37.17;;;16.02;;
28070;SDS011;15383;48.408;9.968;2023-12-04T01:53:49;37.97;;;16.13;;
28070;SDS011;15383;48.408;9.968;2023-12-04T01:56:15;32.97;;;15.60;;
28070;SDS011;15383;48.408;9.968;2023-12-04T01:58:42;34.75;;;15.20;;
28070;SDS011;15383;48.408;9.968;2023-12-04T02:01:08;33.67;;;14.35;;
28070;SDS011;15383;48.408;9.968;2023-12-04T02:03:35;41.03;;;16.48;;
28070;SDS011;15383;48.408;9.968;2023-12-04T02:06:01;36.55;;;15.27;;
28070;SDS011;15383;48.408;9.968;2023-12-04T02:08:28;43.28;;;15.85;;
28070;SDS011;15383;48.408;9.968;2023-12-04T02:10:55;37.78;;;15.02;;
28070;SDS011;15383;48.408;9.968;2023-12-04T02:13:20;33.03;;;14.02;;
28070;SDS011;15383;48.408;9.968;2023-12-04T02:15:46;40.17;;;14.40;;
28070;SDS011;15383;48.408;9.968;2023-12-04T02:18:17;35.88;;;15.27;;
28070;SDS011;15383;48.408;9.968;2023-12-04T02:20:43;36.60;;;15.63;;
28070;SDS011;15383;48.408;9.968;2023-12-04T02:23:08;39.72;;;16.25;;
28070;SDS011;15383;48.408;9.968;2023-12-04T02:25:34;32.85;;;14.80;;
28070;SDS011;15383;48.408;9.968;2023-12-04T02:28:00;30.48;;;14.30;;
28070;SDS011;15383;48.408;9.968;2023-12-04T02:30:29;33.65;;;14.20;;
28070;SDS011;15383;48.408;9.968;2023-12-04T02:32:56;31.38;;;13.20;;
28070;SDS011;15383;48.408;9.968;2023-12-04T02:35:24;32.38;;;14.35;;
28070;SDS011;15383;48.408;9.968;2023-12-04T02:37:53;32.83;;;14.40;;
28070;SDS011;15383;48.408;9.968;2023-12-04T02:40:19;29.30;;;13.15;;
28070;SDS011;15383;48.408;9.968;2023-12-04T02:42:45;31.90;;;14.23;;
28070;SDS011;15383;48.408;9.968;2023-12-04T02:45:10;24.88;;;12.73;;
28070;SDS011;15383;48.408;9.968;2023-12-04T02:47:36;36.40;;;13.63;;
28070;SDS011;15383;48.408;9.968;2023-12-04T02:50:02;35.55;;;14.48;;
28070;SDS011;15383;48.408;9.968;2023-12-04T02:52:27;29.50;;;13.00;;
28070;SDS011;15383;48.408;9.968;2023-12-04T02:54:53;35.17;;;14.07;;
28070;SDS011;15383;48.408;9.968;2023-12-04T02:57:19;27.88;;;13.30;;
28070;SDS011;15383;48.408;9.968;2023-12-04T02:59:45;26.90;;;12.48;;
28070;SDS011;15383;48.408;9.968;2023-12-04T03:02:10;25.50;;;12.63;;
28070;SDS011;15383;48.408;9.968;2023-12-04T03:04:36;28.48;;;11.95;;
28070;SDS011;15383;48.408;9.968;2023-12-04T03:07:01;28.15;;;13.90;;
28070;SDS011;15383;48.408;9.968;2023-12-04T03:09:27;26.00;;;12.35;;
28070;SDS011;15383;48.408;9.968;2023-12-04T03:11:52;26.13;;;11.95;;
28070;SDS011;15383;48.408;9.968;2023-12-04T03:14:18;29.25;;;12.27;;
28070;SDS011;15383;48.408;9.968;2023-12-04T03:16:44;29.25;;;11.63;;
28070;SDS011;15383;48.408;9.968;2023-12-04T03:19:09;25.63;;;12.73;;
28070;SDS011;15383;48.408;9.968;2023-12-04T03:21:35;26.42;;;12.05;;
28070;SDS011;15383;48.408;9.968;2023-12-04T03:24:00;24.45;;;11.55;;
28070;SDS011;15383;48.408;9.968;2023-12-04T03:26:26;28.00;;;12.40;;
28070;SDS011;15383;48.408;9.968;2023-12-04T03:28:51;24.15;;;11.02;;
28070;SDS011;15383;48.408;9.968;2023-12-04T03:31:17;27.50;;;11.48;;
28070;SDS011;15383;48.408;9.968;2023-12-04T03:33:42;28.45;;;12.65;;
28070;SDS011;15383;48.408;9.968;2023-12-04T03:36:08;21.65;;;10.93;;
28070;SDS011;15383;48.408;9.968;2023-12-04T03:38:34;29.33;;;12.65;;
28070;SDS011;15383;48.408;9.968;2023-12-04T03:40:59;28.85;;;12.13;;
28070;SDS011;15383;48.408;9.968;2023-12-04T03:43:25;29.50;;;11.27;;
28070;SDS011;15383;48.408;9.968;2023-12-04T03:45:50;25.55;;;12.18;;
28070;SDS011;15383;48.408;9.968;2023-12-04T03:48:16;24.55;;;11.27;;
28070;SDS011;15383;48.408;9.968;2023-12-04T03:50:41;25.52;;;11.75;;
28070;SDS011;15383;48.408;9.968;2023-12-04T03:53:07;26.13;;;11.35;;
28070;SDS011;15383;48.408;9.968;2023-12-04T03:55:32;28.75;;;12.88;;
28070;SDS011;15383;48.408;9.968;2023-12-04T03:57:58;23.65;;;11.48;;
28070;SDS011;15383;48.408;9.968;2023-12-04T04:00:24;23.63;;;11.55;;
28070;SDS011;15383;48.408;9.968;2023-12-04T04:02:49;25.60;;;11.23;;
28070;SDS011;15383;48.408;9.968;2023-12-04T04:05:15;24.83;;;11.60;;
28070;SDS011;15383;48.408;9.968;2023-12-04T04:07:41;25.52;;;10.32;;
28070;SDS011;15383;48.408;9.968;2023-12-04T04:10:07;25.30;;;11.73;;
28070;SDS011;15383;48.408;9.968;2023-12-04T04:12:33;26.80;;;11.30;;
28070;SDS011;15383;48.408;9.968;2023-12-04T04:14:59;25.40;;;11.43;;
28070;SDS011;15383;48.408;9.968;2023-12-04T04:17:24;24.00;;;12.00;;
28070;SDS011;15383;48.408;9.968;2023-12-04T04:19:51;21.38;;;10.35;;
28070;SDS011;15383;48.408;9.968;2023-12-04T04:22:17;25.67;;;11.98;;
28070;SDS011;15383;48.408;9.968;2023-12-04T04:24:43;22.73;;;10.80;;
28070;SDS011;15383;48.408;9.968;2023-12-04T04:27:09;22.98;;;10.55;;
28070;SDS011;15383;48.408;9.968;2023-12-04T04:29:34;23.60;;;11.48;;
28070;SDS011;15383;48.408;9.968;2023-12-04T04:32:00;27.23;;;11.98;;
28070;SDS011;15383;48.408;9.968;2023-12-04T04:34:25;23.58;;;11.60;;
28070;SDS011;15383;48.408;9.968;2023-12-04T04:36:51;24.98;;;12.13;;
28070;SDS011;15383;48.408;9.968;2023-12-04T04:39:16;23.40;;;10.70;;
28070;SDS011;15383;48.408;9.968;2023-12-04T04:41:42;24.77;;;11.07;;
28070;SDS011;15383;48.408;9.968;2023-12-04T04:44:09;26.85;;;12.48;;
28070;SDS011;15383;48.408;9.968;2023-12-04T04:46:34;25.45;;;11.48;;
28070;SDS011;15383;48.408;9.968;2023-12-04T04:49:00;23.92;;;10.68;;
28070;SDS011;15383;48.408;9.968;2023-12-04T04:51:27;26.90;;;11.90;;
28070;SDS011;15383;48.408;9.968;2023-12-04T04:53:53;29.45;;;12.68;;
28070;SDS011;15383;48.408;9.968;2023-12-04T04:56:18;26.63;;;11.88;;
28070;SDS011;15383;48.408;9.968;2023-12-04T04:58:44;25.63;;;12.35;;
28070;SDS011;15383;48.408;9.968;2023-12-04T05:01:09;29.45;;;13.02;;
28070;SDS011;15383;48.408;9.968;2023-12-04T05:03:35;30.35;;;12.82;;
28070;SDS011;15383;48.408;9.968;2023-12-04T05:06:00;28.75;;;13.63;;
28070;SDS011;15383;48.408;9.968;2023-12-04T05:08:26;30.13;;;12.77;;
28070;SDS011;15383;48.408;9.968;2023-12-04T05:10:51;30.02;;;13.50;;
28070;SDS011;15383;48.408;9.968;2023-12-04T05:13:17;28.88;;;12.70;;
28070;SDS011;15383;48.408;9.968;2023-12-04T05:15:43;30.55;;;14.13;;
28070;SDS011;15383;48.408;9.968;2023-12-04T05:18:08;40.80;;;14.05;;
28070;SDS011;15383;48.408;9.968;2023-12-04T05:20:34;29.65;;;13.38;;
28070;SDS011;15383;48.408;9.968;2023-12-04T05:22:59;31.70;;;14.15;;
28070;SDS011;15383;48.408;9.968;2023-12-04T05:25:25;33.42;;;13.55;;
28070;SDS011;15383;48.408;9.968;2023-12-04T05:27:51;30.13;;;13.63;;
28070;SDS011;15383;48.408;9.968;2023-12-04T05:30:17;33.13;;;14.73;;
28070;SDS011;15383;48.408;9.968;2023-12-04T05:32:42;30.85;;;13.48;;
28070;SDS011;15383;48.408;9.968;2023-12-04T05:35:08;30.38;;;13.70;;
28070;SDS011;15383;48.408;9.968;2023-12-04T05:37:33;32.28;;;13.50;;
28070;SDS011;15383;48.408;9.968;2023-12-04T05:39:59;28.67;;;14.05;;
28070;SDS011;15383;48.408;9.968;2023-12-04T05:42:24;39.70;;;15.65;;
28070;SDS011;15383;48.408;9.968;2023-12-04T05:44:50;38.38;;;15.25;;
28070;SDS011;15383;48.408;9.968;2023-12-04T05:47:20;35.60;;;15.13;;
28070;SDS011;15383;48.408;9.968;2023-12-04T05:49:45;40.00;;;15.00;;
28070;SDS011;15383;48.408;9.968;2023-12-04T05:52:11;29.02;;;13.25;;
28070;SDS011;15383;48.408;9.968;2023-12-04T05:54:36;38.00;;;15.23;;
28070;SDS011;15383;48.408;9.968;2023-12-04T05:57:02;31.92;;;14.82;;
28070;SDS011;15383;48.408;9.968;2023-12-04T05:59:28;37.80;;;15.50;;
28070;SDS011;15383;48.408;9.968;2023-12-04T06:01:53;33.33;;;13.93;;
28070;SDS011;15383;48.408;9.968;2023-12-04T06:04:19;35.28;;;14.98;;
28070;SDS011;15383;48.408;9.968;2023-12-04T06:06:44;37.22;;;15.90;;
28070;SDS011;15383;48.408;9.968;2023-12-04T06:09:10;34.03;;;14.70;;
28070;SDS011;15383;48.408;9.968;2023-12-04T06:11:35;32.17;;;13.60;;
28070;SDS011;15383;48.408;9.968;2023-12-04T06:14:01;29.90;;;13.60;;
28070;SDS011;15383;48.408;9.968;2023-12-04T06:16:26;34.13;;;14.52;;
28070;SDS011;15383;48.408;9.968;2023-12-04T06:18:52;32.65;;;13.65;;
28070;SDS011;15383;48.408;9.968;2023-12-04T06:21:17;36.80;;;14.45;;
28070;SDS011;15383;48.408;9.968;2023-12-04T06:23:43;35.22;;;14.38;;
28070;SDS011;15383;48.408;9.968;2023-12-04T06:26:10;26.65;;;12.73;;
28070;SDS011;15383;48.408;9.968;2023-12-04T06:28:37;30.02;;;12.48;;
28070;SDS011;15383;48.408;9.968;2023-12-04T06:31:03;30.63;;;14.10;;
28070;SDS011;15383;48.408;9.968;2023-12-04T06:33:29;31.38;;;13.98;;
28070;SDS011;15383;48.408;9.968;2023-12-04T06:35:55;36.42;;;13.68;;
28070;SDS011;15383;48.408;9.968;2023-12-04T06:38:21;28.80;;;13.30;;
28070;SDS011;15383;48.408;9.968;2023-12-04T06:40:50;32.50;;;14.00;;
28070;SDS011;15383;48.408;9.968;2023-12-04T06:43:16;33.97;;;13.60;;
28070;SDS011;15383;48.408;9.968;2023-12-04T06:45:43;31.42;;;13.63;;
28070;SDS011;15383;48.408;9.968;2023-12-04T06:48:10;29.42;;;12.35;;
28070;SDS011;15383;48.408;9.968;2023-12-04T06:50:38;26.80;;;13.13;;
28070;SDS011;15383;48.408;9.968;2023-12-04T06:53:05;26.50;;;12.40;;
28070;SDS011;15383;48.408;9.968;2023-12-04T06:55:31;30.23;;;12.88;;
28070;SDS011;15383;48.408;9.968;2023-12-04T06:57:56;30.88;;;13.25;;
28070;SDS011;15383;48.408;9.968;2023-12-04T07:00:22;30.27;;;12.77;;
28070;SDS011;15383;48.408;9.968;2023-12-04T07:02:47;26.38;;;13.32;;
28070;SDS011;15383;48.408;9.968;2023-12-04T07:05:13;29.95;;;12.68;;
28070;SDS011;15383;48.408;9.968;2023-12-04T07:07:39;37.80;;;14.43;;
28070;SDS011;15383;48.408;9.968;2023-12-04T07:10:05;30.98;;;12.95;;
28070;SDS011;15383;48.408;9.968;2023-12-04T07:12:30;34.63;;;14.70;;
28070;SDS011;15383;48.408;9.968;2023-12-04T07:14:56;36.70;;;13.13;;
28070;SDS011;15383;48.408;9.968;2023-12-04T07:17:21;30.38;;;12.85;;
28070;SDS011;15383;48.408;9.968;2023-12-04T07:19:47;31.10;;;14.02;;
28070;SDS011;15383;48.408;9.968;2023-12-04T07:22:13;34.83;;;13.57;;
28070;SDS011;15383;48.408;9.968;2023-12-04T07:24:38;28.98;;;14.30;;
28070;SDS011;15383;48.408;9.968;2023-12-04T07:27:04;33.88;;;14.32;;
28070;SDS011;15383;48.408;9.968;2023-12-04T07:29:30;31.63;;;13.75;;
28070;SDS011;15383;48.408;9.968;2023-12-04T07:31:55;33.95;;;15.45;;
28070;SDS011;15383;48.408;9.968;2023-12-04T07:34:21;37.78;;;14.60;;
28070;SDS011;15383;48.408;9.968;2023-12-04T07:36:46;37.78;;;14.85;;
28070;SDS011;15383;48.408;9.968;2023-12-04T07:39:13;33.30;;;14.60;;
28070;SDS011;15383;48.408;9.968;2023-12-04T07:41:39;31.30;;;14.82;;
28070;SDS011;15383;48.408;9.968;2023-12-04T07:44:05;38.67;;;14.73;;
28070;SDS011;15383;48.408;9.968;2023-12-04T07:46:31;40.05;;;15.15;;
28070;SDS011;15383;48.408;9.968;2023-12-04T07:48:57;31.77;;;13.98;;
28070;SDS011;15383;48.408;9.968;2023-12-04T07:51:23;35.30;;;15.32;;
28070;SDS011;15383;48.408;9.968;2023-12-04T07:53:48;32.83;;;14.82;;
28070;SDS011;15383;48.408;9.968;2023-12-04T07:56:14;37.40;;;14.98;;
28070;SDS011;15383;48.408;9.968;2023-12-04T07:58:39;36.88;;;14.30;;
28070;SDS011;15383;48.408;9.968;2023-12-04T08:01:05;32.63;;;14.13;;
28070;SDS011;15383;48.408;9.968;2023-12-04T08:03:31;35.55;;;15.23;;
28070;SDS011;15383;48.408;9.968;2023-12-04T08:05:56;35.00;;;14.30;;
28070;SDS011;15383;48.408;9.968;2023-12-04T08:08:23;39.92;;;15.10;;
28070;SDS011;15383;48.408;9.968;2023-12-04T08:10:49;32.20;;;15.05;;
28070;SDS011;15383;48.408;9.968;2023-12-04T08:13:15;38.50;;;15.18;;
28070;SDS011;15383;48.408;9.968;2023-12-04T08:15:41;37.90;;;15.02;;
28070;SDS011;15383;48.408;9.968;2023-12-04T08:18:07;39.75;;;16.20;;
28070;SDS011;15383;48.408;9.968;2023-12-04T08:20:32;38.72;;;15.52;;
28070;SDS011;15383;48.408;9.968;2023-12-04T08:22:58;36.63;;;15.50;;
28070;SDS011;15383;48.408;9.968;2023-12-04T08:25:23;34.47;;;14.85;;
28070;SDS011;15383;48.408;9.968;2023-12-04T08:27:49;37.70;;;14.80;;
28070;SDS011;15383;48.408;9.968;2023-12-04T08:30:16;42.28;;;16.45;;
28070;SDS011;15383;48.408;9.968;2023-12-04T08:32:41;34.20;;;15.38;;
28070;SDS011;15383;48.408;9.968;2023-12-04T08:35:07;38.17;;;15.82;;
28070;SDS011;15383;48.408;9.968;2023-12-04T08:37:32;39.05;;;15.75;;
28070;SDS011;15383;48.408;9.968;2023-12-04T08:39:58;39.92;;;16.95;;
28070;SDS011;15383;48.408;9.968;2023-12-04T08:42:23;34.78;;;15.68;;
28070;SDS011;15383;48.408;9.968;2023-12-04T08:44:49;39.15;;;16.33;;
28070;SDS011;15383;48.408;9.968;2023-12-04T08:47:15;38.97;;;16.63;;
28070;SDS011;15383;48.408;9.968;2023-12-04T08:49:40;38.83;;;16.90;;
28070;SDS011;15383;48.408;9.968;2023-12-04T08:52:06;36.63;;;16.13;;
28070;SDS011;15383;48.408;9.968;2023-12-04T08:54:32;42.83;;;17.08;;
28070;SDS011;15383;48.408;9.968;2023-12-04T08:56:58;37.35;;;15.48;;
28070;SDS011;15383;48.408;9.968;2023-12-04T08:59:23;44.75;;;16.80;;
28070;SDS011;15383;48.408;9.968;2023-12-04T09:01:49;37.28;;;17.08;;
28070;SDS011;15383;48.408;9.968;2023-12-04T09:04:14;41.97;;;17.05;;
28070;SDS011;15383;48.408;9.968;2023-12-04T09:06:40;48.25;;;16.70;;
28070;SDS011;15383;48.408;9.968;2023-12-04T09:09:05;42.05;;;15.68;;
28070;SDS011;15383;48.408;9.968;2023-12-04T09:11:31;48.03;;;18.10;;
28070;SDS011;15383;48.408;9.968;2023-12-04T09:13:57;41.53;;;16.85;;
28070;SDS011;15383;48.408;9.968;2023-12-04T09:16:23;40.90;;;17.38;;
28070;SDS011;15383;48.408;9.968;2023-12-04T09:18:48;46.53;;;18.10;;
28070;SDS011;15383;48.408;9.968;2023-12-04T09:21:14;46.13;;;17.75;;
28070;SDS011;15383;48.408;9.968;2023-12-04T09:23:40;44.78;;;19.63;;
28070;SDS011;15383;48.408;9.968;2023-12-04T09:26:05;43.38;;;19.50;;
28070;SDS011;15383;48.408;9.968;2023-12-04T09:28:31;49.60;;;18.75;;
28070;SDS011;15383;48.408;9.968;2023-12-04T09:30:56;41.25;;;18.00;;
28070;SDS011;15383;48.408;9.968;2023-12-04T09:33:22;43.38;;;18.88;;
28070;SDS011;15383;48.408;9.968;2023-12-04T09:35:47;52.95;;;20.35;;
28070;SDS011;15383;48.408;9.968;2023-12-04T09:38:13;53.58;;;19.92;;
28070;SDS011;15383;48.408;9.968;2023-12-04T09:40:38;49.13;;;19.73;;
28070;SDS011;15383;48.408;9.968;2023-12-04T09:43:05;48.33;;;20.30;;
28070;SDS011;15383;48.408;9.968;2023-12-04T09:45:32;49.65;;;19.40;;
28070;SDS011;15383;48.408;9.968;2023-12-04T09:47:58;54.88;;;20.42;;
28070;SDS011;15383;48.408;9.968;2023-12-04T09:50:24;49.67;;;19.35;;
28070;SDS011;15383;48.408;9.968;2023-12-04T09:52:50;42.88;;;18.80;;
28070;SDS011;15383;48.408;9.968;2023-12-04T09:55:17;41.65;;;18.27;;
28070;SDS011;15383;48.408;9.968;2023-12-04T09:57:43;56.15;;;20.35;;
28070;SDS011;15383;48.408;9.968;2023-12-04T10:00:14;53.65;;;20.15;;
28070;SDS011;15383;48.408;9.968;2023-12-04T10:02:40;47.15;;;18.20;;
28070;SDS011;15383;48.408;9.968;2023-12-04T10:05:07;56.15;;;20.42;;
28070;SDS011;15383;48.408;9.968;2023-12-04T10:07:34;56.22;;;20.23;;
28070;SDS011;15383;48.408;9.968;2023-12-04T10:10:01;46.13;;;17.60;;
28070;SDS011;15383;48.408;9.968;2023-12-04T10:12:29;46.22;;;19.02;;
28070;SDS011;15383;48.408;9.968;2023-12-04T10:15:08;57.85;;;18.92;;
28070;SDS011;15383;48.408;9.968;2023-12-04T10:17:35;49.10;;;18.23;;
28070;SDS011;15383;48.408;9.968;2023-12-04T10:20:09;43.58;;;17.92;;
28070;SDS011;15383;48.408;9.968;2023-12-04T10:25:21;47.22;;;18.65;;
28070;SDS011;15383;48.408;9.968;2023-12-04T10:27:49;47.80;;;17.95;;
28070;SDS011;15383;48.408;9.968;2023-12-04T10:30:22;56.13;;;19.00;;
28070;SDS011;15383;48.408;9.968;2023-12-04T10:32:48;48.85;;;18.40;;
28070;SDS011;15383;48.408;9.968;2023-12-04T10:35:14;49.03;;;19.02;;
28070;SDS011;15383;48.408;9.968;2023-12-04T10:37:39;48.35;;;18.85;;
28070;SDS011;15383;48.408;9.968;2023-12-04T10:40:06;48.67;;;18.10;;
28070;SDS011;15383;48.408;9.968;2023-12-04T10:42:35;53.10;;;18.67;;
28070;SDS011;15383;48.408;9.968;2023-12-04T10:45:00;46.70;;;19.58;;
28070;SDS011;15383;48.408;9.968;2023-12-04T10:47:27;48.85;;;18.88;;
28070;SDS011;15383;48.408;9.968;2023-12-04T10:49:54;47.90;;;17.20;;
28070;SDS011;15383;48.408;9.968;2023-12-04T10:52:20;55.42;;;19.88;;
28070;SDS011;15383;48.408;9.968;2023-12-04T10:54:49;50.92;;;19.10;;
28070;SDS011;15383;48.408;9.968;2023-12-04T10:57:37;44.95;;;18.80;;
28070;SDS011;15383;48.408;9.968;2023-12-04T11:00:05;52.42;;;18.80;;
28070;SDS011;15383;48.408;9.968;2023-12-04T11:02:33;51.75;;;20.05;;
28070;SDS011;15383;48.408;9.968;2023-12-04T11:05:18;54.72;;;20.00;;
28070;SDS011;15383;48.408;9.968;2023-12-04T11:07:48;47.58;;;18.67;;
28070;SDS011;15383;48.408;9.968;2023-12-04T11:10:17;50.25;;;20.63;;
28070;SDS011;15383;48.408;9.968;2023-12-04T11:12:47;48.60;;;18.70;;
28070;SDS011;15383;48.408;9.968;2023-12-04T11:15:19;49.30;;;18.67;;
28070;SDS011;15383;48.408;9.968;2023-12-04T11:17:49;47.15;;;17.65;;
28070;SDS011;15383;48.408;9.968;2023-12-04T11:20:18;45.80;;;19.27;;
28070;SDS011;15383;48.408;9.968;2023-12-04T11:22:49;45.33;;;19.73;;
28070;SDS011;15383;48.408;9.968;2023-12-04T11:25:16;46.10;;;19.17;;
28070;SDS011;15383;48.408;9.968;2023-12-04T11:27:42;53.55;;;20.00;;
28070;SDS011;15383;48.408;9.968;2023-12-04T11:30:08;49.67;;;19.27;;
28070;SDS011;15383;48.408;9.968;2023-12-04T11:32:46;46.55;;;18.60;;
28070;SDS011;15383;48.408;9.968;2023-12-04T11:35:17;56.13;;;18.42;;
28070;SDS011;15383;48.408;9.968;2023-12-04T11:37:43;46.08;;;17.88;;
28070;SDS011;15383;48.408;9.968;2023-12-04T11:40:12;50.33;;;19.67;;
28070;SDS011;15383;48.408;9.968;2023-12-04T11:42:38;53.65;;;19.88;;
28070;SDS011;15383;48.408;9.968;2023-12-04T11:45:04;48.63;;;20.05;;
28070;SDS011;15383;48.408;9.968;2023-12-04T11:47:31;50.67;;;19.42;;
28070;SDS011;15383;48.408;9.968;2023-12-04T11:50:20;51.97;;;19.15;;
28070;SDS011;15383;48.408;9.968;2023-12-04T11:52:47;52.20;;;20.88;;
28070;SDS011;15383;48.408;9.968;2023-12-04T11:55:31;52.05;;;19.60;;
28070;SDS011;15383;48.408;9.968;2023-12-04T11:58:08;60.22;;;20.15;;
28070;SDS011;15383;48.408;9.968;2023-12-04T12:00:37;45.78;;;19.67;;
28070;SDS011;15383;48.408;9.968;2023-12-04T12:03:06;50.35;;;20.63;;
28070;SDS011;15383;48.408;9.968;2023-12-04T12:05:34;54.00;;;19.50;;
28070;SDS011;15383;48.408;9.968;2023-12-04T12:08:03;56.08;;;20.88;;
28070;SDS011;15383;48.408;9.968;2023-12-04T12:10:30;62.35;;;23.20;;
28070;SDS011;15383;48.408;9.968;2023-12-04T12:12:56;61.00;;;21.05;;
28070;SDS011;15383;48.408;9.968;2023-12-04T12:15:22;57.88;;;22.55;;
28070;SDS011;15383;48.408;9.968;2023-12-04T12:17:47;52.33;;;19.52;;
28070;SDS011;15383;48.408;9.968;2023-12-04T12:20:14;56.47;;;20.48;;
28070;SDS011;15383;48.408;9.968;2023-12-04T12:22:40;52.35;;;20.63;;
28070;SDS011;15383;48.408;9.968;2023-12-04T12:25:08;53.75;;;20.08;;
28070;SDS011;15383;48.408;9.968;2023-12-04T12:27:35;52.25;;;21.30;;
28070;SDS011;15383;48.408;9.968;2023-12-04T12:30:01;55.22;;;19.92;;
28070;SDS011;15383;48.408;9.968;2023-12-04T12:32:29;53.97;;;20.35;;
28070;SDS011;15383;48.408;9.968;2023-12-04T12:34:56;53.53;;;20.38;;
28070;SDS011;15383;48.408;9.968;2023-12-04T12:37:22;53.15;;;20.10;;
28070;SDS011;15383;48.408;9.968;2023-12-04T12:39:47;51.30;;;20.13;;
28070;SDS011;15383;48.408;9.968;2023-12-04T12:42:26;42.72;;;18.25;;
28070;SDS011;15383;48.408;9.968;2023-12-04T12:44:53;46.53;;;18.23;;
28070;SDS011;15383;48.408;9.968;2023-12-04T12:47:23;47.58;;;20.00;;
28070;SDS011;15383;48.408;9.968;2023-12-04T12:49:48;49.47;;;19.15;;
28070;SDS011;15383;48.408;9.968;2023-12-04T12:52:14;46.90;;;19.65;;
28070;SDS011;15383;48.408;9.968;2023-12-04T12:54:40;40.05;;;17.30;;
28070;SDS011;15383;48.408;9.968;2023-12-04T12:57:07;51.22;;;18.95;;
28070;SDS011;15383;48.408;9.968;2023-12-04T12:59:34;46.97;;;18.80;;
28070;SDS011;15383;48.408;9.968;2023-12-04T13:02:00;41.45;;;18.23;;
28070;SDS011;15383;48.408;9.968;2023-12-04T13:04:26;48.63;;;19.10;;
28070;SDS011;15383;48.408;9.968;2023-12-04T13:06:59;49.67;;;19.73;;
28070;SDS011;15383;48.408;9.968;2023-12-04T13:09:25;43.53;;;18.65;;
28070;SDS011;15383;48.408;9.968;2023-12-04T13:11:50;43.90;;;18.33;;
28070;SDS011;15383;48.408;9.968;2023-12-04T13:14:17;45.28;;;18.33;;
28070;SDS011;15383;48.408;9.968;2023-12-04T13:16:42;44.03;;;18.73;;
28070;SDS011;15383;48.408;9.968;2023-12-04T13:19:08;45.08;;;17.90;;
28070;SDS011;15383;48.408;9.968;2023-12-04T13:21:33;43.08;;;18.42;;
28070;SDS011;15383;48.408;9.968;2023-12-04T13:23:59;45.10;;;17.42;;
28070;SDS011;15383;48.408;9.968;2023-12-04T13:26:24;45.35;;;18.15;;
28070;SDS011;15383;48.408;9.968;2023-12-04T13:28:50;41.88;;;17.45;;
28070;SDS011;15383;48.408;9.968;2023-12-04T13:31:16;49.47;;;18.25;;
28070;SDS011;15383;48.408;9.968;2023-12-04T13:33:42;39.58;;;17.35;;
28070;SDS011;15383;48.408;9.968;2023-12-04T13:36:08;42.33;;;17.85;;
28070;SDS011;15383;48.408;9.968;2023-12-04T13:38:34;42.92;;;18.08;;
28070;SDS011;15383;48.408;9.968;2023-12-04T13:41:00;43.00;;;17.90;;
28070;SDS011;15383;48.408;9.968;2023-12-04T13:43:43;42.47;;;17.70;;
28070;SDS011;15383;48.408;9.968;2023-12-04T13:46:15;48.30;;;18.65;;
28070;SDS011;15383;48.408;9.968;2023-12-04T13:48:41;41.60;;;16.70;;
28070;SDS011;15383;48.408;9.968;2023-12-04T13:51:09;43.35;;;18.13;;
28070;SDS011;15383;48.408;9.968;2023-12-04T13:53:35;44.63;;;18.65;;
28070;SDS011;15383;48.408;9.968;2023-12-04T13:56:04;37.22;;;17.48;;
28070;SDS011;15383;48.408;9.968;2023-12-04T13:59:00;39.33;;;15.85;;
28070;SDS011;15383;48.408;9.968;2023-12-04T14:01:27;42.70;;;18.00;;
28070;SDS011;15383;48.408;9.968;2023-12-04T14:03:54;41.83;;;16.30;;
28070;SDS011;15383;48.408;9.968;2023-12-04T14:06:29;35.70;;;16.50;;
28070;SDS011;15383;48.408;9.968;2023-12-04T14:08:55;41.85;;;16.77;;
28070;SDS011;15383;48.408;9.968;2023-12-04T14:11:24;42.65;;;16.98;;
28070;SDS011;15383;48.408;9.968;2023-12-04T14:13:49;45.00;;;17.30;;
28070;SDS011;15383;48.408;9.968;2023-12-04T14:16:16;40.03;;;17.58;;
28070;SDS011;15383;48.408;9.968;2023-12-04T14:18:41;44.80;;;17.85;;
28070;SDS011;15383;48.408;9.968;2023-12-04T14:21:10;35.45;;;15.63;;